JAL8118 RJFK-RJBE
Flight info
| Callsign | JAL8118 |
|---|---|
| Flight time | 1h 0m |
| Altitude | 35000 |
| Route | MIDAI M750 MADOG Y53 SUC Y537 LOVGI Y353 AVKUL |
| Aircraft | A359/H-SDE2E3GHIJ3J4J5LM1ORWXY/LB1D1 |
Departure
| Time | 2026-04-30 12:18 |
|---|---|
| Airport | Kagoshima Airport (RJFK) |
Arrival
| Time | 2026-04-30 13:18 |
|---|---|
| Airport | Kobe Airport (RJBE) |
| Time | Latitude | Longitude | Altitude | Speed | Heading |
|---|---|---|---|---|---|
| 2026-04-30 11:51 | 31.80212 | 130.71616 | 910 ft | 0 kts | 241° |
| 2026-04-30 12:09 | 31.80215 | 130.71621 | 911 ft | 3 kts | 241° |
| 2026-04-30 12:09 | 31.80225 | 130.71643 | 917 ft | 3 kts | 241° |
| 2026-04-30 12:09 | 31.80235 | 130.71664 | 913 ft | 3 kts | 241° |
| 2026-04-30 12:09 | 31.80245 | 130.71686 | 914 ft | 3 kts | 241° |
| 2026-04-30 12:10 | 31.80256 | 130.71706 | 919 ft | 3 kts | 220° |
| 2026-04-30 12:10 | 31.80274 | 130.71715 | 914 ft | 3 kts | 184° |
| 2026-04-30 12:10 | 31.80294 | 130.71713 | 915 ft | 3 kts | 170° |
| 2026-04-30 12:10 | 31.80312 | 130.71707 | 916 ft | 0 kts | 157° |
| 2026-04-30 12:14 | 31.80309 | 130.71708 | 917 ft | 5 kts | 157° |
| 2026-04-30 12:14 | 31.80180 | 130.71796 | 909 ft | 37 kts | 148° |
| 2026-04-30 12:15 | 31.79895 | 130.72003 | 898 ft | 60 kts | 148° |
| 2026-04-30 12:15 | 31.79682 | 130.72155 | 892 ft | 32 kts | 150° |
| 2026-04-30 12:15 | 31.79475 | 130.72295 | 890 ft | 32 kts | 150° |
| 2026-04-30 12:15 | 31.79339 | 130.72386 | 888 ft | 28 kts | 150° |
| 2026-04-30 12:16 | 31.79266 | 130.72434 | 888 ft | 6 kts | 152° |
| 2026-04-30 12:16 | 31.79189 | 130.72484 | 887 ft | 15 kts | 150° |
| 2026-04-30 12:16 | 31.79128 | 130.72588 | 884 ft | 13 kts | 85° |
| 2026-04-30 12:16 | 31.79133 | 130.72607 | 883 ft | 0 kts | 70° |
| 2026-04-30 12:17 | 31.79136 | 130.72617 | 883 ft | 6 kts | 70° |
| 2026-04-30 12:17 | 31.79164 | 130.72667 | 883 ft | 9 kts | 44° |
| 2026-04-30 12:17 | 31.79223 | 130.72686 | 884 ft | 8 kts | 345° |
| 2026-04-30 12:18 | 31.79281 | 130.72652 | 887 ft | 19 kts | 331° |
| 2026-04-30 12:18 | 31.79615 | 130.72434 | 895 ft | 83 kts | 331° |
| 2026-04-30 12:18 | 31.80385 | 130.71910 | 926 ft | 170 kts | 330° |
| 2026-04-30 12:18 | 31.81510 | 130.71246 | 1724 ft | 193 kts | 342° |
| 2026-04-30 12:19 | 31.82881 | 130.71424 | 2649 ft | 213 kts | 24° |
| 2026-04-30 12:19 | 31.83938 | 130.72691 | 3196 ft | 231 kts | 65° |
| 2026-04-30 12:19 | 31.84131 | 130.74638 | 3643 ft | 254 kts | 100° |
| 2026-04-30 12:19 | 31.83937 | 130.76740 | 4406 ft | 263 kts | 91° |
| 2026-04-30 12:20 | 31.83942 | 130.78878 | 5316 ft | 267 kts | 92° |
| 2026-04-30 12:20 | 31.83515 | 130.81008 | 6251 ft | 272 kts | 117° |
| 2026-04-30 12:20 | 31.82258 | 130.82644 | 7223 ft | 273 kts | 146° |
| 2026-04-30 12:20 | 31.80627 | 130.83826 | 8197 ft | 278 kts | 150° |
| 2026-04-30 12:21 | 31.78940 | 130.84973 | 9197 ft | 282 kts | 150° |
| 2026-04-30 12:21 | 31.77235 | 130.86153 | 10183 ft | 287 kts | 149° |
| 2026-04-30 12:21 | 31.75479 | 130.87390 | 10852 ft | 305 kts | 149° |
| 2026-04-30 12:21 | 31.73587 | 130.88737 | 11263 ft | 329 kts | 149° |
| 2026-04-30 12:22 | 31.71590 | 130.90168 | 11971 ft | 341 kts | 149° |
| 2026-04-30 12:22 | 31.69553 | 130.91631 | 12874 ft | 346 kts | 149° |
| 2026-04-30 12:22 | 31.67516 | 130.93113 | 13742 ft | 351 kts | 147° |
| 2026-04-30 12:22 | 31.65626 | 130.94958 | 14577 ft | 357 kts | 133° |
| 2026-04-30 12:23 | 31.64227 | 130.97375 | 15384 ft | 362 kts | 114° |
| 2026-04-30 12:23 | 31.63589 | 131.00232 | 16198 ft | 366 kts | 98° |
| 2026-04-30 12:23 | 31.63044 | 131.03167 | 16938 ft | 370 kts | 106° |
| 2026-04-30 12:23 | 31.62394 | 131.06106 | 17725 ft | 375 kts | 103° |
| 2026-04-30 12:24 | 31.61888 | 131.09119 | 18504 ft | 379 kts | 99° |
| 2026-04-30 12:24 | 31.61554 | 131.12211 | 19281 ft | 384 kts | 95° |
| 2026-04-30 12:24 | 31.61418 | 131.15358 | 20049 ft | 389 kts | 90° |
| 2026-04-30 12:24 | 31.61500 | 131.18497 | 20665 ft | 392 kts | 86° |
| 2026-04-30 12:25 | 31.61569 | 131.21751 | 20956 ft | 395 kts | 92° |
| 2026-04-30 12:25 | 31.61289 | 131.24920 | 21003 ft | 397 kts | 98° |
| 2026-04-30 12:25 | 31.60877 | 131.28130 | 21137 ft | 400 kts | 98° |
| 2026-04-30 12:25 | 31.60654 | 131.31395 | 21783 ft | 403 kts | 91° |
| 2026-04-30 12:26 | 31.60810 | 131.34673 | 22581 ft | 404 kts | 82° |
| 2026-04-30 12:26 | 31.61427 | 131.37901 | 23279 ft | 408 kts | 72° |
| 2026-04-30 12:26 | 31.62494 | 131.40996 | 23947 ft | 411 kts | 64° |
| 2026-04-30 12:26 | 31.63848 | 131.43971 | 24602 ft | 416 kts | 59° |
| 2026-04-30 12:27 | 31.65355 | 131.46885 | 25227 ft | 420 kts | 58° |
| 2026-04-30 12:27 | 31.66926 | 131.49789 | 25848 ft | 423 kts | 57° |
| 2026-04-30 12:27 | 31.68493 | 131.52681 | 26429 ft | 427 kts | 57° |
| 2026-04-30 12:27 | 31.70079 | 131.55653 | 27002 ft | 431 kts | 58° |
| 2026-04-30 12:28 | 31.71656 | 131.58663 | 27575 ft | 435 kts | 58° |
| 2026-04-30 12:28 | 31.73231 | 131.61714 | 28123 ft | 439 kts | 59° |
| 2026-04-30 12:28 | 31.74809 | 131.64801 | 28660 ft | 442 kts | 59° |
| 2026-04-30 12:28 | 31.76392 | 131.67915 | 29161 ft | 446 kts | 59° |
| 2026-04-30 12:29 | 31.77987 | 131.71058 | 29657 ft | 449 kts | 59° |
| 2026-04-30 12:29 | 31.79592 | 131.74223 | 30138 ft | 453 kts | 59° |
| 2026-04-30 12:29 | 31.81209 | 131.77412 | 30589 ft | 456 kts | 59° |
| 2026-04-30 12:29 | 31.82817 | 131.80585 | 31038 ft | 459 kts | 59° |
| 2026-04-30 12:30 | 31.84459 | 131.83824 | 31471 ft | 462 kts | 59° |
| 2026-04-30 12:30 | 31.86110 | 131.87083 | 31886 ft | 466 kts | 59° |
| 2026-04-30 12:30 | 31.87771 | 131.90364 | 32284 ft | 468 kts | 59° |
| 2026-04-30 12:30 | 31.89443 | 131.93671 | 32670 ft | 471 kts | 59° |
| 2026-04-30 12:31 | 31.91123 | 131.96996 | 33038 ft | 474 kts | 59° |
| 2026-04-30 12:31 | 31.92814 | 132.00345 | 33398 ft | 477 kts | 59° |
| 2026-04-30 12:31 | 31.94512 | 132.03711 | 33745 ft | 480 kts | 59° |
| 2026-04-30 12:31 | 31.96218 | 132.07097 | 34075 ft | 482 kts | 59° |
| 2026-04-30 12:32 | 31.97933 | 132.10503 | 34398 ft | 485 kts | 59° |
| 2026-04-30 12:32 | 31.99630 | 132.13877 | 34736 ft | 486 kts | 59° |
| 2026-04-30 12:32 | 32.01355 | 132.17311 | 34964 ft | 486 kts | 59° |
| 2026-04-30 12:32 | 32.03045 | 132.20677 | 35011 ft | 469 kts | 59° |
| 2026-04-30 12:33 | 32.04677 | 132.23930 | 35011 ft | 453 kts | 59° |
| 2026-04-30 12:33 | 32.06257 | 132.27083 | 35010 ft | 442 kts | 59° |
| 2026-04-30 12:33 | 32.09324 | 132.33213 | 35005 ft | 431 kts | 59° |
| 2026-04-30 12:34 | 32.12625 | 132.39100 | 35000 ft | 431 kts | 49° |
| 2026-04-30 12:34 | 32.17070 | 132.43975 | 34986 ft | 450 kts | 39° |
| 2026-04-30 12:35 | 32.22050 | 132.48720 | 34998 ft | 470 kts | 38° |
| 2026-04-30 12:35 | 32.27291 | 132.53612 | 35002 ft | 489 kts | 38° |
| 2026-04-30 12:36 | 32.32705 | 132.58705 | 34997 ft | 504 kts | 38° |
| 2026-04-30 12:36 | 32.38179 | 132.63895 | 34998 ft | 510 kts | 38° |
| 2026-04-30 12:37 | 32.43707 | 132.69155 | 34995 ft | 502 kts | 38° |
| 2026-04-30 12:37 | 32.46377 | 132.71698 | 35010 ft | 483 kts | 38° |
| 2026-04-30 12:37 | 32.48956 | 132.74158 | 35006 ft | 474 kts | 38° |
| 2026-04-30 12:38 | 32.54190 | 132.79152 | 34986 ft | 492 kts | 39° |
| 2026-04-30 12:38 | 32.59603 | 132.84322 | 34998 ft | 506 kts | 39° |
| 2026-04-30 12:39 | 32.65044 | 132.89529 | 35006 ft | 495 kts | 39° |
| 2026-04-30 12:39 | 32.67674 | 132.92050 | 35007 ft | 477 kts | 39° |
| 2026-04-30 12:39 | 32.70209 | 132.94481 | 35007 ft | 461 kts | 39° |
| 2026-04-30 12:40 | 32.72659 | 132.96833 | 35007 ft | 445 kts | 39° |
| 2026-04-30 12:40 | 32.74992 | 132.99147 | 35006 ft | 430 kts | 43° |
| 2026-04-30 12:40 | 32.77068 | 133.01618 | 35013 ft | 415 kts | 46° |
| 2026-04-30 12:40 | 32.79025 | 133.04059 | 35009 ft | 400 kts | 46° |
| 2026-04-30 12:41 | 32.80890 | 133.06439 | 35008 ft | 388 kts | 47° |
| 2026-04-30 12:41 | 32.82706 | 133.08783 | 35005 ft | 385 kts | 47° |
| 2026-04-30 12:41 | 32.86294 | 133.13442 | 35005 ft | 384 kts | 47° |
| 2026-04-30 12:42 | 32.89903 | 133.18126 | 34998 ft | 384 kts | 47° |
| 2026-04-30 12:42 | 32.93517 | 133.22809 | 35003 ft | 384 kts | 47° |
| 2026-04-30 12:43 | 32.97424 | 133.27138 | 35004 ft | 384 kts | 41° |
| 2026-04-30 12:43 | 33.01419 | 133.31286 | 34995 ft | 384 kts | 40° |
| 2026-04-30 12:44 | 33.05455 | 133.35432 | 34999 ft | 384 kts | 40° |
| 2026-04-30 12:44 | 33.09500 | 133.39596 | 35002 ft | 383 kts | 40° |
| 2026-04-30 12:45 | 33.13532 | 133.43761 | 34997 ft | 383 kts | 40° |
| 2026-04-30 12:45 | 33.17531 | 133.47903 | 35004 ft | 383 kts | 40° |
| 2026-04-30 12:46 | 33.21558 | 133.52079 | 35004 ft | 383 kts | 40° |
| 2026-04-30 12:46 | 33.25582 | 133.56256 | 35004 ft | 383 kts | 41° |
| 2026-04-30 12:47 | 33.29604 | 133.60436 | 35004 ft | 383 kts | 41° |
| 2026-04-30 12:47 | 33.33624 | 133.64621 | 34996 ft | 383 kts | 41° |
| 2026-04-30 12:48 | 33.37613 | 133.68777 | 35001 ft | 383 kts | 41° |
| 2026-04-30 12:48 | 33.41626 | 133.72964 | 35004 ft | 383 kts | 41° |
| 2026-04-30 12:49 | 33.45635 | 133.77161 | 34995 ft | 383 kts | 41° |
| 2026-04-30 12:49 | 33.49644 | 133.81352 | 35001 ft | 383 kts | 41° |
| 2026-04-30 12:50 | 33.51656 | 133.83435 | 34738 ft | 382 kts | 39° |
| 2026-04-30 12:50 | 33.53793 | 133.85321 | 34317 ft | 380 kts | 32° |
| 2026-04-30 12:50 | 33.56036 | 133.86867 | 34004 ft | 374 kts | 26° |
| 2026-04-30 12:50 | 33.58417 | 133.88083 | 33651 ft | 370 kts | 19° |
| 2026-04-30 12:51 | 33.60846 | 133.88911 | 33324 ft | 365 kts | 11° |
| 2026-04-30 12:51 | 33.65613 | 133.89705 | 32659 ft | 357 kts | 5° |
| 2026-04-30 12:51 | 33.68072 | 133.89990 | 32326 ft | 353 kts | 5° |
| 2026-04-30 12:52 | 33.70527 | 133.90250 | 31778 ft | 356 kts | 5° |
| 2026-04-30 12:52 | 33.72960 | 133.90502 | 31125 ft | 354 kts | 5° |
| 2026-04-30 12:52 | 33.75391 | 133.90759 | 30583 ft | 347 kts | 5° |
| 2026-04-30 12:52 | 33.77760 | 133.91015 | 30224 ft | 337 kts | 5° |
| 2026-04-30 12:53 | 33.80079 | 133.91270 | 29876 ft | 333 kts | 5° |
| 2026-04-30 12:53 | 33.82379 | 133.91529 | 29517 ft | 331 kts | 5° |
| 2026-04-30 12:53 | 33.84663 | 133.91789 | 29014 ft | 328 kts | 5° |
| 2026-04-30 12:53 | 33.86924 | 133.92043 | 28489 ft | 324 kts | 5° |
| 2026-04-30 12:54 | 33.89151 | 133.92293 | 28035 ft | 318 kts | 5° |
| 2026-04-30 12:54 | 33.91345 | 133.92539 | 27758 ft | 316 kts | 5° |
| 2026-04-30 12:54 | 33.93488 | 133.92779 | 27486 ft | 311 kts | 5° |
| 2026-04-30 12:54 | 33.95632 | 133.93023 | 27214 ft | 308 kts | 5° |
| 2026-04-30 12:55 | 33.97754 | 133.93269 | 26938 ft | 305 kts | 5° |
| 2026-04-30 12:55 | 33.99854 | 133.93507 | 26650 ft | 302 kts | 5° |
| 2026-04-30 12:55 | 34.01964 | 133.93742 | 26081 ft | 309 kts | 5° |
| 2026-04-30 12:55 | 34.04140 | 133.93984 | 25362 ft | 320 kts | 5° |
| 2026-04-30 12:56 | 34.06384 | 133.94234 | 24787 ft | 326 kts | 5° |
| 2026-04-30 12:56 | 34.08612 | 133.94485 | 24292 ft | 328 kts | 5° |
| 2026-04-30 12:56 | 34.10928 | 133.94747 | 23815 ft | 330 kts | 5° |
| 2026-04-30 12:56 | 34.13216 | 133.95006 | 23337 ft | 331 kts | 5° |
| 2026-04-30 12:57 | 34.15506 | 133.95266 | 22937 ft | 329 kts | 5° |
| 2026-04-30 12:57 | 34.17780 | 133.95525 | 22572 ft | 327 kts | 5° |
| 2026-04-30 12:57 | 34.20033 | 133.95781 | 22214 ft | 324 kts | 5° |
| 2026-04-30 12:57 | 34.22263 | 133.96034 | 21876 ft | 320 kts | 5° |
| 2026-04-30 12:58 | 34.24471 | 133.96285 | 21528 ft | 317 kts | 5° |
| 2026-04-30 12:58 | 34.26657 | 133.96534 | 21171 ft | 314 kts | 5° |
| 2026-04-30 12:58 | 34.28828 | 133.96780 | 20742 ft | 314 kts | 5° |
| 2026-04-30 12:58 | 34.30997 | 133.97027 | 20154 ft | 320 kts | 5° |
| 2026-04-30 12:59 | 34.33232 | 133.97281 | 19548 ft | 325 kts | 5° |
| 2026-04-30 12:59 | 34.35499 | 133.97553 | 18938 ft | 330 kts | 7° |
| 2026-04-30 12:59 | 34.37751 | 133.98157 | 18330 ft | 334 kts | 18° |
| 2026-04-30 12:59 | 34.39946 | 133.99109 | 17730 ft | 337 kts | 21° |
| 2026-04-30 13:00 | 34.42122 | 134.00201 | 17120 ft | 340 kts | 23° |
| 2026-04-30 13:00 | 34.44287 | 134.01373 | 16518 ft | 342 kts | 24° |
| 2026-04-30 13:00 | 34.46428 | 134.02576 | 16214 ft | 334 kts | 25° |
| 2026-04-30 13:00 | 34.48500 | 134.03746 | 16044 ft | 323 kts | 24° |
| 2026-04-30 13:01 | 34.50433 | 134.05033 | 15869 ft | 312 kts | 34° |
| 2026-04-30 13:01 | 34.51987 | 134.06739 | 15714 ft | 302 kts | 50° |
| 2026-04-30 13:01 | 34.53074 | 134.08852 | 15548 ft | 291 kts | 66° |
| 2026-04-30 13:01 | 34.53693 | 134.11142 | 15381 ft | 282 kts | 75° |
| 2026-04-30 13:02 | 34.54156 | 134.13460 | 14925 ft | 285 kts | 77° |
| 2026-04-30 13:02 | 34.54611 | 134.15831 | 14321 ft | 292 kts | 77° |
| 2026-04-30 13:02 | 34.55078 | 134.18255 | 13705 ft | 299 kts | 77° |
| 2026-04-30 13:02 | 34.55560 | 134.20733 | 13105 ft | 304 kts | 76° |
| 2026-04-30 13:03 | 34.56052 | 134.23245 | 12496 ft | 309 kts | 76° |
| 2026-04-30 13:03 | 34.56552 | 134.25794 | 11891 ft | 312 kts | 76° |
| 2026-04-30 13:03 | 34.57049 | 134.28331 | 11294 ft | 315 kts | 76° |
| 2026-04-30 13:03 | 34.57557 | 134.30922 | 10690 ft | 317 kts | 76° |
| 2026-04-30 13:04 | 34.58066 | 134.33515 | 10262 ft | 312 kts | 76° |
| 2026-04-30 13:04 | 34.58558 | 134.36028 | 10086 ft | 300 kts | 76° |
| 2026-04-30 13:04 | 34.59030 | 134.38443 | 9911 ft | 288 kts | 76° |
| 2026-04-30 13:04 | 34.59482 | 134.40760 | 9760 ft | 277 kts | 76° |
| 2026-04-30 13:05 | 34.59917 | 134.42987 | 9609 ft | 265 kts | 76° |
| 2026-04-30 13:05 | 34.60333 | 134.45120 | 9484 ft | 254 kts | 76° |
| 2026-04-30 13:05 | 34.60731 | 134.47167 | 9354 ft | 244 kts | 76° |
| 2026-04-30 13:06 | 34.61473 | 134.50984 | 9126 ft | 224 kts | 76° |
| 2026-04-30 13:06 | 34.61823 | 134.52783 | 8994 ft | 215 kts | 76° |
| 2026-04-30 13:06 | 34.62163 | 134.54534 | 8751 ft | 212 kts | 76° |
| 2026-04-30 13:06 | 34.62500 | 134.56273 | 8465 ft | 211 kts | 76° |
| 2026-04-30 13:07 | 34.62835 | 134.58000 | 8188 ft | 210 kts | 76° |
| 2026-04-30 13:07 | 34.63168 | 134.59718 | 7927 ft | 209 kts | 76° |
| 2026-04-30 13:07 | 34.63499 | 134.61430 | 7656 ft | 208 kts | 77° |
| 2026-04-30 13:07 | 34.63828 | 134.63130 | 7377 ft | 207 kts | 77° |
| 2026-04-30 13:08 | 34.64155 | 134.64826 | 7102 ft | 206 kts | 77° |
| 2026-04-30 13:08 | 34.64481 | 134.66515 | 6828 ft | 205 kts | 77° |
| 2026-04-30 13:08 | 34.64804 | 134.68188 | 6594 ft | 201 kts | 77° |
| 2026-04-30 13:08 | 34.65117 | 134.69809 | 6332 ft | 199 kts | 77° |
| 2026-04-30 13:09 | 34.65424 | 134.71405 | 6194 ft | 189 kts | 77° |
| 2026-04-30 13:09 | 34.65717 | 134.72927 | 6034 ft | 181 kts | 77° |
| 2026-04-30 13:09 | 34.66002 | 134.74413 | 5930 ft | 181 kts | 77° |
| 2026-04-30 13:09 | 34.66203 | 134.75918 | 5834 ft | 181 kts | 86° |
| 2026-04-30 13:10 | 34.66093 | 134.77431 | 5707 ft | 180 kts | 103° |
| 2026-04-30 13:10 | 34.65764 | 134.78895 | 5596 ft | 180 kts | 107° |
| 2026-04-30 13:10 | 34.65396 | 134.80344 | 5482 ft | 179 kts | 107° |
| 2026-04-30 13:10 | 34.65028 | 134.81789 | 5369 ft | 179 kts | 107° |
| 2026-04-30 13:11 | 34.64669 | 134.83216 | 5153 ft | 179 kts | 107° |
| 2026-04-30 13:11 | 34.64308 | 134.84658 | 4879 ft | 178 kts | 107° |
| 2026-04-30 13:11 | 34.63950 | 134.86090 | 4606 ft | 177 kts | 107° |
| 2026-04-30 13:11 | 34.63595 | 134.87517 | 4329 ft | 176 kts | 107° |
| 2026-04-30 13:12 | 34.63241 | 134.88938 | 4061 ft | 175 kts | 107° |
| 2026-04-30 13:12 | 34.62889 | 134.90355 | 3794 ft | 175 kts | 107° |
| 2026-04-30 13:12 | 34.62539 | 134.91761 | 3565 ft | 174 kts | 107° |
| 2026-04-30 13:13 | 34.61839 | 134.94571 | 3414 ft | 174 kts | 107° |
| 2026-04-30 13:13 | 34.61505 | 134.95955 | 3330 ft | 174 kts | 104° |
| 2026-04-30 13:13 | 34.61441 | 134.98865 | 3126 ft | 173 kts | 85° |
| 2026-04-30 13:14 | 34.61540 | 135.00317 | 3068 ft | 173 kts | 85° |
| 2026-04-30 13:14 | 34.61653 | 135.01754 | 3082 ft | 166 kts | 84° |
| 2026-04-30 13:14 | 34.61850 | 135.04410 | 2736 ft | 155 kts | 84° |
| 2026-04-30 13:15 | 34.61954 | 135.05714 | 2508 ft | 155 kts | 84° |
| 2026-04-30 13:15 | 34.62157 | 135.08293 | 2101 ft | 149 kts | 84° |
| 2026-04-30 13:15 | 34.62253 | 135.09517 | 1898 ft | 144 kts | 84° |
| 2026-04-30 13:16 | 34.62347 | 135.10705 | 1717 ft | 143 kts | 84° |
| 2026-04-30 13:16 | 34.62442 | 135.11908 | 1522 ft | 143 kts | 84° |
| 2026-04-30 13:16 | 34.62537 | 135.13113 | 1341 ft | 143 kts | 84° |
| 2026-04-30 13:17 | 34.62721 | 135.15445 | 964 ft | 135 kts | 84° |
| 2026-04-30 13:17 | 34.62810 | 135.16576 | 786 ft | 135 kts | 84° |
| 2026-04-30 13:17 | 34.62955 | 135.18456 | 471 ft | 134 kts | 84° |
| 2026-04-30 13:18 | 34.63077 | 135.19953 | 252 ft | 133 kts | 84° |
| 2026-04-30 13:18 | 34.63251 | 135.22142 | 41 ft | 112 kts | 84° |
| 2026-04-30 13:18 | 34.63296 | 135.22747 | 42 ft | 39 kts | 85° |
| 2026-04-30 13:19 | 34.63318 | 135.23068 | 39 ft | 24 kts | 85° |
| 2026-04-30 13:19 | 34.63344 | 135.23163 | 38 ft | 13 kts | 47° |
| 2026-04-30 13:19 | 34.63431 | 135.23190 | 40 ft | 13 kts | 358° |
| 2026-04-30 13:19 | 34.63490 | 135.23117 | 41 ft | 14 kts | 278° |
| 2026-04-30 13:20 | 34.63486 | 135.22991 | 41 ft | 17 kts | 265° |
| 2026-04-30 13:20 | 34.63483 | 135.22888 | 41 ft | 2 kts | 300° |
| 2026-04-30 13:20 | 34.63498 | 135.22883 | 41 ft | 3 kts | 344° |
| 2026-04-30 13:20 | 34.63536 | 135.22875 | 41 ft | 8 kts | 353° |
| 2026-04-30 13:21 | 34.63597 | 135.22866 | 41 ft | 8 kts | 353° |
| 2026-04-30 13:21 | 34.63601 | 135.22865 | 41 ft | 1 kts | 353° |